createdAt,value
2018-07-28T00:03:04.116Z,24.07
2018-07-28T00:07:08.803Z,23.20
2018-07-28T00:11:13.061Z,26.80
2018-07-28T00:15:17.324Z,24.93
2018-07-28T00:19:21.745Z,22.73
2018-07-28T00:23:25.968Z,23.83
2018-07-28T00:27:31.341Z,24.00
2018-07-28T00:31:35.590Z,23.90
2018-07-28T00:35:40.034Z,26.43
2018-07-28T00:39:44.297Z,22.80
2018-07-28T00:43:48.652Z,24.60
2018-07-28T00:47:52.869Z,25.60
2018-07-28T00:51:57.244Z,24.13
2018-07-28T00:56:01.489Z,24.47
2018-07-28T01:00:07.134Z,24.20
2018-07-28T01:04:11.463Z,23.00
2018-07-28T01:08:15.686Z,23.30
2018-07-28T01:12:19.864Z,21.27
2018-07-28T01:16:24.273Z,23.03
2018-07-28T01:20:28.674Z,24.43
2018-07-28T01:24:32.945Z,23.77
2018-07-28T01:28:37.286Z,25.60
2018-07-28T01:32:41.627Z,25.23
2018-07-28T01:36:46.954Z,23.27
2018-07-28T01:40:51.180Z,23.17
2018-07-28T01:44:55.467Z,23.77
2018-07-28T01:48:59.749Z,24.10
2018-07-28T01:53:03.956Z,24.83
2018-07-28T01:57:08.185Z,23.10
2018-07-28T02:01:12.628Z,23.60
2018-07-28T02:05:16.888Z,23.70
2018-07-28T02:09:21.224Z,24.80
2018-07-28T02:13:25.586Z,24.30
2018-07-28T02:17:29.873Z,26.00
2018-07-28T02:21:34.238Z,22.83
2018-07-28T02:25:38.771Z,23.53
2018-07-28T02:29:42.984Z,25.80
2018-07-28T02:33:47.359Z,25.40
2018-07-28T02:37:51.625Z,25.00
2018-07-28T02:41:55.834Z,23.90
2018-07-28T02:46:00.201Z,27.13
2018-07-28T02:50:05.328Z,25.33
2018-07-28T02:54:09.660Z,25.13
2018-07-28T02:58:13.884Z,24.13
2018-07-28T03:02:18.105Z,24.80
2018-07-28T03:06:22.441Z,24.13
2018-07-28T03:10:26.701Z,24.27
2018-07-28T03:14:31.046Z,23.77
2018-07-28T03:18:35.411Z,23.60
2018-07-28T03:22:39.668Z,24.20
2018-07-28T03:26:43.952Z,24.90
2018-07-28T03:30:48.388Z,25.00
2018-07-28T03:34:52.614Z,24.30
2018-07-28T03:38:56.892Z,29.27
2018-07-28T03:43:01.145Z,25.73
2018-07-28T03:47:05.405Z,23.83
2018-07-28T03:51:09.715Z,26.30
2018-07-28T03:55:13.965Z,25.53
2018-07-28T03:59:18.219Z,26.67
2018-07-28T04:03:22.504Z,24.60
2018-07-28T04:07:26.761Z,23.17
2018-07-28T04:11:31.050Z,21.77
2018-07-28T04:15:35.269Z,22.67
2018-07-28T04:19:39.500Z,23.77
2018-07-28T04:23:43.792Z,24.67
2018-07-28T04:27:48.237Z,23.90
2018-07-28T04:31:52.469Z,23.70
2018-07-28T04:35:56.770Z,24.40
2018-07-28T04:40:01.046Z,24.03
2018-07-28T04:44:05.339Z,23.30
2018-07-28T04:48:09.730Z,23.73
2018-07-28T04:52:13.956Z,24.03
2018-07-28T04:56:18.310Z,23.43
2018-07-28T05:00:22.533Z,23.10
2018-07-28T05:04:26.967Z,22.30
2018-07-28T05:08:31.616Z,23.37
2018-07-28T05:12:36.034Z,23.13
2018-07-28T05:16:40.353Z,23.60
2018-07-28T05:20:45.001Z,23.30
2018-07-28T05:24:49.235Z,23.80
2018-07-28T05:28:53.611Z,22.97
2018-07-28T05:32:58.874Z,22.90
2018-07-28T05:37:05.280Z,23.63
2018-07-28T05:41:16.750Z,22.80
2018-07-28T05:45:24.427Z,21.27
2018-07-28T05:49:28.867Z,20.43
2018-07-28T05:53:33.395Z,22.60
2018-07-28T05:57:37.676Z,22.30
2018-07-28T06:01:47.795Z,22.13
2018-07-28T06:05:58.749Z,22.87
2018-07-28T06:10:08.400Z,21.97
2018-07-28T06:14:17.516Z,20.97
2018-07-28T06:18:26.574Z,21.07
2018-07-28T06:22:35.972Z,21.10
2018-07-28T06:26:44.538Z,20.23
2018-07-28T06:30:55.118Z,20.27
2018-07-28T06:35:04.600Z,21.03
2018-07-28T06:39:16.485Z,20.37
2018-07-28T06:43:25.578Z,19.60
2018-07-28T06:47:35.396Z,20.90
2018-07-28T06:51:45.153Z,19.00
2018-07-28T06:55:56.282Z,19.00
2018-07-28T07:00:05.888Z,19.20
2018-07-28T07:04:17.008Z,18.83
2018-07-28T07:08:26.502Z,20.17
2018-07-28T07:12:36.293Z,19.73
2018-07-28T07:16:45.977Z,18.63
2018-07-28T07:20:54.884Z,19.60
2018-07-28T07:25:04.922Z,19.03
2018-07-28T07:29:13.166Z,18.43
2018-07-28T07:33:24.029Z,17.93
2018-07-28T07:37:32.717Z,18.10
2018-07-28T07:41:42.259Z,18.27
2018-07-28T07:45:52.545Z,18.40
2018-07-28T07:50:01.954Z,20.83
2018-07-28T07:54:11.730Z,18.90
2018-07-28T07:58:21.371Z,18.20
2018-07-28T08:02:32.349Z,18.13
2018-07-28T08:06:41.756Z,18.03
2018-07-28T08:10:51.438Z,18.80
2018-07-28T08:15:01.181Z,19.97
2018-07-28T08:19:10.368Z,18.00
2018-07-28T08:23:20.558Z,18.07
2018-07-28T08:27:31.800Z,17.60
2018-07-28T08:31:42.402Z,17.27
2018-07-28T08:35:52.324Z,17.53
2018-07-28T08:40:03.527Z,18.07
2018-07-28T08:44:13.363Z,15.70
2018-07-28T08:48:22.844Z,17.83
2018-07-28T08:52:32.756Z,14.50
2018-07-28T08:56:42.542Z,16.07
2018-07-28T09:00:53.373Z,14.13
2018-07-28T09:05:03.157Z,14.40
2018-07-28T09:09:14.468Z,17.17
2018-07-28T09:13:24.021Z,14.77
2018-07-28T09:17:33.811Z,17.07
2018-07-28T09:21:43.533Z,15.97
2018-07-28T09:25:53.199Z,15.10
2018-07-28T09:30:02.817Z,14.37
2018-07-28T09:34:12.824Z,15.90
2018-07-28T09:38:22.607Z,16.10
2018-07-28T09:42:33.600Z,15.40
2018-07-28T09:46:42.692Z,15.10
2018-07-28T09:50:52.119Z,15.90
2018-07-28T09:55:01.880Z,15.97
2018-07-28T09:59:10.843Z,16.10
2018-07-28T10:03:19.876Z,16.60
2018-07-28T10:07:28.720Z,16.57
2018-07-28T10:11:38.635Z,16.67
2018-07-28T10:15:48.371Z,17.27
2018-07-28T10:20:02.374Z,17.03
2018-07-28T10:24:12.313Z,16.63
2018-07-28T10:28:23.133Z,16.60
2018-07-28T10:32:32.913Z,16.20
2018-07-28T10:36:43.889Z,15.40
2018-07-28T10:40:53.840Z,16.00
2018-07-28T10:45:03.895Z,16.37
2018-07-28T10:49:13.021Z,16.67
2018-07-28T10:53:22.177Z,14.70
2018-07-28T10:57:31.235Z,18.43
2018-07-28T11:01:40.193Z,16.87
2018-07-28T11:05:50.638Z,16.83
2018-07-28T11:10:00.318Z,17.35
2018-07-28T11:14:09.595Z,16.00
2018-07-28T11:18:19.218Z,16.00
2018-07-28T11:22:23.768Z,17.47
2018-07-28T11:26:28.211Z,22.80
2018-07-28T11:30:32.361Z,16.30
2018-07-28T11:34:47.527Z,16.50
2018-07-28T11:39:02.991Z,15.67
2018-07-28T11:43:18.320Z,15.97
2018-07-28T11:47:22.625Z,16.17
2018-07-28T11:51:27.448Z,15.60
2018-07-28T11:55:32.909Z,15.10
2018-07-28T11:59:37.483Z,17.00
2018-07-28T12:03:41.730Z,15.27
2018-07-28T12:07:46.192Z,16.50
2018-07-28T12:11:50.410Z,15.47
2018-07-28T12:15:54.703Z,14.90
2018-07-28T12:19:58.974Z,15.37
2018-07-28T12:24:03.496Z,14.30
2018-07-28T12:28:07.989Z,15.00
2018-07-28T12:32:12.217Z,15.00
2018-07-28T12:36:16.457Z,15.17
2018-07-28T12:40:20.789Z,14.40
2018-07-28T12:44:25.171Z,15.50
2018-07-28T12:48:29.384Z,14.90
2018-07-28T12:52:33.675Z,15.07
2018-07-28T12:56:37.937Z,15.13
2018-07-28T13:00:42.191Z,14.53
2018-07-28T13:04:46.656Z,14.60
2018-07-28T13:08:50.935Z,14.87
2018-07-28T13:12:55.314Z,15.03
2018-07-28T13:16:59.699Z,14.20
2018-07-28T13:21:03.963Z,14.40
2018-07-28T13:25:08.401Z,14.70
2018-07-28T13:29:12.588Z,15.53
2018-07-28T13:33:18.664Z,14.30
2018-07-28T13:37:23.094Z,14.20
2018-07-28T13:41:29.152Z,15.40
2018-07-28T13:45:33.471Z,13.83
2018-07-28T13:49:37.813Z,14.07
2018-07-28T13:53:42.072Z,14.57
2018-07-28T13:57:46.385Z,14.50
2018-07-28T14:01:50.933Z,16.33
2018-07-28T14:06:00.991Z,15.83
2018-07-28T14:10:12.579Z,15.10
2018-07-28T14:14:23.531Z,14.10
2018-07-28T14:18:33.115Z,15.50
2018-07-28T14:22:42.934Z,15.37
2018-07-28T14:26:50.783Z,15.50
2018-07-28T14:30:59.786Z,16.13
2018-07-28T14:35:07.838Z,16.37
2018-07-28T14:39:17.814Z,15.17
2018-07-28T14:43:25.966Z,14.60
2018-07-28T14:47:34.647Z,14.70
2018-07-28T14:51:43.498Z,14.93
2018-07-28T14:55:52.220Z,14.53
2018-07-28T15:00:01.025Z,15.30
2018-07-28T15:04:11.643Z,16.20
2018-07-28T15:08:24.930Z,15.50
2018-07-28T15:12:34.408Z,15.67
2018-07-28T15:16:46.235Z,15.10
2018-07-28T15:20:55.713Z,14.17
2018-07-28T15:25:08.551Z,14.30
2018-07-28T15:29:17.170Z,14.97
2018-07-28T15:33:27.850Z,13.87
2018-07-28T15:37:37.371Z,15.33
2018-07-28T15:41:49.116Z,15.93
2018-07-28T15:45:58.362Z,16.03
2018-07-28T15:50:07.634Z,14.97
2018-07-28T15:54:18.044Z,15.07
2018-07-28T15:58:27.173Z,15.13
2018-07-28T16:02:37.252Z,15.37
2018-07-28T16:06:45.978Z,16.17
2018-07-28T16:10:54.612Z,15.63
2018-07-28T16:15:03.317Z,15.60
2018-07-28T16:19:11.751Z,14.90
2018-07-28T16:23:16.023Z,17.20
2018-07-28T16:27:20.382Z,14.87
2018-07-28T16:31:24.687Z,15.63
2018-07-28T16:35:28.949Z,17.13
2018-07-28T16:39:33.281Z,18.23
2018-07-28T16:43:37.545Z,18.00
2018-07-28T16:47:41.800Z,17.90
2018-07-28T16:51:46.102Z,17.40
2018-07-28T16:55:50.472Z,16.20
2018-07-28T16:59:54.693Z,16.47
2018-07-28T17:03:59.010Z,18.20
2018-07-28T17:08:03.495Z,17.50
2018-07-28T17:12:07.861Z,17.97
2018-07-28T17:16:12.102Z,17.43
2018-07-28T17:20:16.362Z,17.67
2018-07-28T17:24:20.965Z,20.07
2018-07-28T17:28:25.385Z,19.50
2018-07-28T17:32:29.765Z,19.20
2018-07-28T17:36:34.040Z,19.20
2018-07-28T17:40:38.336Z,19.30
2018-07-28T17:44:42.623Z,18.73
2018-07-28T17:48:46.857Z,19.80
2018-07-28T17:52:51.320Z,19.77
2018-07-28T17:56:55.623Z,28.93
2018-07-28T18:00:59.840Z,22.87
2018-07-28T18:05:04.607Z,19.90
2018-07-28T18:09:10.093Z,19.20
2018-07-28T18:13:14.330Z,19.97
2018-07-28T18:17:18.601Z,18.73
2018-07-28T18:21:22.930Z,18.30
2018-07-28T18:25:27.418Z,18.23
2018-07-28T18:29:32.000Z,17.97
2018-07-28T18:33:36.418Z,18.00
2018-07-28T18:37:41.512Z,17.00
2018-07-28T18:41:50.879Z,17.90
2018-07-28T18:46:00.151Z,18.40
2018-07-28T18:50:09.482Z,16.87
2018-07-28T18:54:19.432Z,17.10
2018-07-28T18:58:29.880Z,18.87
2018-07-28T19:02:39.457Z,18.80
2018-07-28T19:06:48.741Z,19.40
2018-07-28T19:10:57.934Z,18.40
2018-07-28T19:15:07.162Z,20.40
2018-07-28T19:19:20.178Z,19.10
2018-07-28T19:23:33.558Z,20.10
2018-07-28T19:27:45.482Z,18.00
2018-07-28T19:31:55.911Z,19.37
2018-07-28T19:36:09.524Z,19.03
2018-07-28T19:40:17.491Z,19.00
2018-07-28T19:44:26.344Z,18.80
2018-07-28T19:48:37.024Z,18.30
2018-07-28T19:52:46.796Z,19.90
2018-07-28T19:56:56.600Z,19.00
2018-07-28T20:01:05.951Z,20.00
2018-07-28T20:05:15.917Z,19.50
2018-07-28T20:09:25.499Z,18.80
2018-07-28T20:13:34.942Z,19.50
2018-07-28T20:17:46.678Z,21.57
2018-07-28T20:21:55.995Z,19.60
2018-07-28T20:26:05.105Z,22.10
2018-07-28T20:30:15.238Z,19.87
2018-07-28T20:34:29.236Z,22.10
2018-07-28T20:38:39.145Z,21.23
2018-07-28T20:42:48.913Z,21.27
2018-07-28T20:46:58.772Z,21.83
2018-07-28T20:51:08.600Z,22.63
2018-07-28T20:55:17.522Z,22.00
2018-07-28T20:59:30.679Z,20.43
2018-07-28T21:03:40.729Z,24.53
2018-07-28T21:07:45.146Z,24.70
2018-07-28T21:11:49.389Z,22.93
2018-07-28T21:15:53.726Z,22.60
2018-07-28T21:19:57.983Z,22.90
2018-07-28T21:24:02.358Z,23.77
2018-07-28T21:28:06.916Z,25.30
2018-07-28T21:32:11.864Z,22.17
2018-07-28T21:36:16.172Z,23.57
2018-07-28T21:40:20.722Z,25.20
2018-07-28T21:44:26.193Z,21.40
2018-07-28T21:48:30.763Z,23.13
2018-07-28T21:52:34.969Z,23.60
2018-07-28T21:56:39.201Z,23.37
2018-07-28T22:00:48.847Z,25.80
2018-07-28T22:04:53.419Z,23.80
2018-07-28T22:08:57.766Z,21.50
2018-07-28T22:13:02.119Z,28.77
2018-07-28T22:17:06.741Z,25.03
2018-07-28T22:21:12.145Z,23.83
2018-07-28T22:25:16.413Z,23.07
2018-07-28T22:29:20.792Z,26.33
2018-07-28T22:33:25.174Z,23.83
2018-07-28T22:37:29.456Z,23.70
2018-07-28T22:41:33.760Z,23.67
2018-07-28T22:45:38.060Z,25.13
2018-07-28T22:49:42.293Z,27.03
2018-07-28T22:53:46.545Z,24.57
2018-07-28T22:57:50.764Z,24.80
2018-07-28T23:01:54.997Z,25.47
2018-07-28T23:05:59.308Z,26.70
2018-07-28T23:10:03.709Z,24.30
2018-07-28T23:14:08.148Z,25.70
2018-07-28T23:18:12.548Z,27.20
2018-07-28T23:22:16.811Z,29.03
2018-07-28T23:26:21.148Z,29.07
2018-07-28T23:30:25.370Z,26.83
2018-07-28T23:34:29.617Z,25.20
2018-07-28T23:38:34.012Z,27.83
2018-07-28T23:42:38.412Z,24.67
2018-07-28T23:46:42.696Z,25.57
2018-07-28T23:50:47.057Z,27.77
2018-07-28T23:54:51.346Z,29.60
2018-07-28T23:58:55.565Z,27.10
